createdAt,value
2023-01-09T00:01:45.968Z,103034.41
2023-01-09T00:04:13.840Z,103034.44
2023-01-09T00:17:18.666Z,103025.66
2023-01-09T00:19:51.400Z,103010.72
2023-01-09T00:22:20.073Z,103030.00
2023-01-09T00:24:49.782Z,103021.25
2023-01-09T00:27:17.678Z,103017.72
2023-01-09T00:29:47.809Z,103019.53
2023-01-09T00:32:17.313Z,103009.88
2023-01-09T00:34:45.191Z,103009.00
2023-01-09T00:37:15.547Z,103013.38
2023-01-09T00:39:44.259Z,103017.75
2023-01-09T00:42:17.572Z,103007.22
2023-01-09T00:44:56.340Z,103008.13
2023-01-09T00:47:30.797Z,103008.97
2023-01-09T00:50:00.996Z,103006.31
2023-01-09T00:52:31.431Z,103000.13
2023-01-09T00:54:59.815Z,102998.38
2023-01-09T00:57:28.126Z,103000.16
2023-01-09T00:59:55.959Z,102990.50
2023-01-09T01:02:26.336Z,102995.75
2023-01-09T01:05:13.007Z,102991.41
2023-01-09T01:07:43.431Z,102983.50
2023-01-09T01:10:30.085Z,102977.31
2023-01-09T01:12:57.961Z,102981.72
2023-01-09T01:15:29.586Z,102977.31
2023-01-09T01:17:58.069Z,102976.47
2023-01-09T01:20:25.915Z,102967.66
2023-01-09T01:22:53.778Z,102961.53
2023-01-09T01:25:21.702Z,102965.91
2023-01-09T01:27:49.760Z,102961.50
2023-01-09T01:30:17.908Z,102957.97
2023-01-09T01:32:46.026Z,102956.22
2023-01-09T01:35:13.848Z,102960.56
2023-01-09T01:37:42.166Z,102964.94
2023-01-09T01:40:10.744Z,102957.91
2023-01-09T01:42:46.396Z,102961.38
2023-01-09T01:45:19.943Z,102954.34
2023-01-09T01:48:03.661Z,102957.03
2023-01-09T01:50:41.635Z,102956.19
2023-01-09T01:53:14.263Z,102950.03
2023-01-09T01:55:45.802Z,102941.28
2023-01-09T01:58:14.874Z,102943.91
2023-01-09T02:00:44.798Z,102947.44
2023-01-09T02:03:12.914Z,102924.66
2023-01-09T02:05:40.786Z,102932.63
2023-01-09T02:08:08.690Z,102927.41
2023-01-09T02:10:37.602Z,102923.00
2023-01-09T02:13:06.784Z,102919.53
2023-01-09T02:15:49.523Z,102920.47
2023-01-09T02:18:24.726Z,102909.97
2023-01-09T02:20:59.757Z,102903.81
2023-01-09T02:23:44.171Z,102907.34
2023-01-09T02:26:52.251Z,102910.88
2023-01-09T02:29:38.916Z,102904.72
2023-01-09T02:32:28.001Z,102900.34
2023-01-09T02:35:11.067Z,102894.22
2023-01-09T02:37:57.410Z,102884.53
2023-01-09T02:40:38.849Z,102886.28
2023-01-09T02:43:06.624Z,102882.78
2023-01-09T02:45:34.572Z,102879.25
2023-01-09T02:48:02.622Z,102876.69
2023-01-09T02:55:26.297Z,102872.25
2023-01-09T02:58:22.939Z,102875.75
2023-01-09T03:00:56.634Z,102883.63
2023-01-09T03:03:31.985Z,102882.75
2023-01-09T03:06:17.167Z,102883.59
2023-01-09T03:08:47.907Z,102890.59
2023-01-09T03:11:17.472Z,102886.16
2023-01-09T03:13:46.643Z,102879.19
2023-01-09T03:16:17.216Z,102881.84
2023-01-09T03:18:44.845Z,102887.91
2023-01-09T03:21:13.050Z,102884.41
2023-01-09T03:23:47.564Z,102879.09
2023-01-09T03:26:15.313Z,102879.19
2023-01-09T03:28:43.129Z,102873.84
2023-01-09T03:31:10.996Z,102876.50
2023-01-09T03:33:39.426Z,102879.09
2023-01-09T03:36:07.634Z,102882.59
2023-01-09T03:38:35.533Z,102881.72
2023-01-09T03:41:03.575Z,102874.69
2023-01-09T03:43:31.348Z,102875.53
2023-01-09T03:45:59.337Z,102874.66
2023-01-09T03:48:27.379Z,102883.41
2023-01-09T03:50:55.384Z,102873.72
2023-01-09T03:53:25.873Z,102882.53
2023-01-09T03:55:54.928Z,102879.00
2023-01-09T03:58:23.298Z,102886.06
2023-01-09T04:00:51.487Z,102886.94
2023-01-09T04:03:20.416Z,102883.47
2023-01-09T04:05:48.735Z,102877.34
2023-01-09T04:08:16.762Z,102877.41
2023-01-09T04:10:45.884Z,102877.41
2023-01-09T04:13:30.806Z,102884.47
2023-01-09T04:16:00.222Z,102884.44
2023-01-09T04:18:29.603Z,102888.75
2023-01-09T04:20:57.700Z,102894.06
2023-01-09T04:23:25.542Z,102894.94
2023-01-09T04:25:53.642Z,102901.06
2023-01-09T04:28:21.560Z,102911.59
2023-01-09T04:30:49.240Z,102910.69
2023-01-09T04:33:16.935Z,102908.03
2023-01-09T04:35:44.773Z,102911.53
2023-01-09T04:38:12.669Z,102909.78
2023-01-09T04:40:40.312Z,102906.28
2023-01-09T04:43:09.498Z,102911.53
2023-01-09T04:45:37.315Z,102908.03
2023-01-09T04:48:05.473Z,102900.16
2023-01-09T04:50:34.390Z,102895.75
2023-01-09T04:53:02.294Z,102888.75
2023-01-09T04:55:30.298Z,102887.84
2023-01-09T04:57:58.473Z,102892.22
2023-01-09T05:00:26.200Z,102889.63
2023-01-09T05:02:53.957Z,102880.88
2023-01-09T05:05:22.520Z,102867.69
2023-01-09T05:07:50.741Z,102876.53
2023-01-09T05:10:18.663Z,102887.00
2023-01-09T05:12:46.823Z,102885.25
2023-01-09T05:15:14.645Z,102887.94
2023-01-09T05:17:43.478Z,102887.84
2023-01-09T05:20:11.832Z,102875.59
2023-01-09T05:22:39.825Z,102881.72
2023-01-09T05:25:07.885Z,102888.75
2023-01-09T05:27:39.902Z,102883.53
2023-01-09T05:30:08.556Z,102880.91
2023-01-09T05:32:36.264Z,102883.53
2023-01-09T05:35:04.219Z,102894.00
2023-01-09T05:37:32.527Z,102895.72
2023-01-09T05:40:00.394Z,102897.50
2023-01-09T05:42:28.245Z,102901.91
2023-01-09T05:44:56.328Z,102908.06
2023-01-09T05:47:24.116Z,102901.88
2023-01-09T05:49:52.379Z,102895.81
2023-01-09T05:52:20.296Z,102894.91
2023-01-09T05:54:48.047Z,102894.91
2023-01-09T05:57:17.334Z,102896.72
2023-01-09T05:59:45.071Z,102898.50
2023-01-09T06:02:13.081Z,102898.53
2023-01-09T06:04:40.911Z,102895.06
2023-01-09T06:07:08.660Z,102888.94
2023-01-09T06:09:36.568Z,102892.47
2023-01-09T06:12:04.496Z,102889.00
2023-01-09T06:14:32.430Z,102879.38
2023-01-09T06:17:00.852Z,102886.44
2023-01-09T06:19:28.598Z,102887.31
2023-01-09T06:21:56.602Z,102885.63
2023-01-09T06:24:24.335Z,102884.75
2023-01-09T06:26:52.679Z,102886.53
2023-01-09T06:29:20.547Z,102895.34
2023-01-09T06:31:48.220Z,102900.63
2023-01-09T06:34:16.040Z,102891.00
2023-01-09T06:36:43.710Z,102882.22
2023-01-09T06:39:14.296Z,102879.63
2023-01-09T06:41:41.950Z,102875.22
2023-01-09T06:44:09.515Z,102878.75
2023-01-09T06:46:37.085Z,102874.34
2023-01-09T06:49:04.725Z,102866.41
2023-01-09T06:51:32.489Z,102870.84
2023-01-09T06:54:02.699Z,102868.16
2023-01-09T06:56:30.384Z,102871.69
2023-01-09T06:58:57.992Z,102876.94
2023-01-09T07:01:25.799Z,102883.13
2023-01-09T07:03:53.468Z,102887.47
2023-01-09T07:06:21.095Z,102883.06
2023-01-09T07:08:49.519Z,102886.56
2023-01-09T07:11:17.068Z,102888.31
2023-01-09T09:11:03.759Z,102838.88
2023-01-09T09:13:34.285Z,102827.03
2023-01-09T09:16:07.763Z,102830.97
2023-01-09T09:18:36.826Z,102839.91
2023-01-09T09:24:05.259Z,102828.06
2023-01-09T09:26:35.264Z,102830.53
2023-01-09T09:29:03.049Z,102832.97
2023-01-09T09:43:43.449Z,102804.41
2023-01-09T09:46:26.265Z,102805.66
2023-01-09T09:48:57.356Z,102799.72
2023-01-09T09:52:02.644Z,102788.38
2023-01-09T09:54:40.499Z,102789.66
2023-01-09T09:57:11.783Z,102790.47
2023-01-09T09:59:39.530Z,102780.50
2023-01-09T10:02:10.246Z,102778.72
2023-01-09T10:04:43.182Z,102779.44
2023-01-09T10:07:17.145Z,102769.94
2023-01-09T10:09:54.885Z,102761.75
2023-01-09T10:12:27.357Z,102758.09
2023-01-09T10:14:57.067Z,102757.94
2023-01-09T10:17:35.274Z,102759.97
2023-01-09T10:20:25.035Z,102741.94
2023-01-09T10:23:17.192Z,102755.47
2023-01-09T10:25:46.087Z,102727.19
2023-01-09T10:28:37.920Z,102720.25
2023-01-09T10:31:11.598Z,102716.97
2023-01-09T10:34:11.554Z,102723.03
2023-01-09T10:36:51.107Z,102715.00
2023-01-09T10:39:21.562Z,102713.41
2023-01-09T10:42:00.470Z,102706.19
2023-01-09T10:44:37.325Z,102703.28
2023-01-09T10:47:09.469Z,102701.22
2023-01-09T10:49:37.717Z,102689.50
2023-01-09T10:52:18.295Z,102683.56
2023-01-09T10:54:56.624Z,102676.63
2023-01-09T10:57:38.770Z,102676.41
2023-01-09T11:00:08.025Z,102679.06
2023-01-09T11:02:36.281Z,102681.69
2023-01-09T11:05:04.231Z,102668.97
2023-01-09T11:07:35.031Z,102675.44
2023-01-09T11:10:03.813Z,102685.56
2023-01-09T11:12:33.637Z,102690.59
2023-01-09T11:15:16.680Z,102688.44
2023-01-09T11:17:44.746Z,102687.44
2023-01-09T11:20:22.550Z,102678.31
2023-01-09T11:22:51.409Z,102697.38
2023-01-09T11:25:20.341Z,102698.34
2023-01-09T11:28:09.541Z,102698.56
2023-01-09T11:30:37.797Z,102691.22
2023-01-09T11:33:16.111Z,102687.84
2023-01-09T11:36:13.275Z,102683.59
2023-01-09T11:39:15.290Z,102663.44
2023-01-09T11:41:42.938Z,102680.69
2023-01-09T11:44:11.068Z,102670.63
2023-01-09T11:46:41.076Z,102662.66
2023-01-09T11:49:14.773Z,102669.16
2023-01-09T11:51:42.708Z,102653.34
2023-01-09T11:54:45.100Z,102661.59
2023-01-09T11:57:12.716Z,102672.00
2023-01-09T11:59:40.273Z,102668.75
2023-01-09T12:02:19.916Z,102668.81
2023-01-09T12:04:56.301Z,102676.75
2023-01-09T12:07:39.170Z,102689.09
2023-01-09T12:10:11.294Z,102676.06
2023-01-09T12:12:55.037Z,102670.72
2023-01-09T12:15:32.432Z,102680.16
2023-01-09T12:18:08.705Z,102676.69
2023-01-09T12:20:51.568Z,102684.09
2023-01-09T12:23:30.640Z,102680.75
2023-01-09T12:26:01.771Z,102685.22
2023-01-09T12:28:38.269Z,102682.38
2023-01-09T12:31:12.060Z,102689.28
2023-01-09T12:34:01.437Z,102683.88
2023-01-09T12:36:53.905Z,102690.09
2023-01-09T12:40:06.141Z,102685.41
2023-01-09T12:42:51.940Z,102672.91
2023-01-09T12:45:56.220Z,102675.69
2023-01-09T12:48:53.344Z,102681.63
2023-01-09T12:51:20.944Z,102678.75
2023-01-09T12:54:15.007Z,102675.75
2023-01-09T12:56:45.890Z,102670.72
2023-01-09T12:59:21.891Z,102669.78
2023-01-09T13:01:50.568Z,102663.00
2023-01-09T13:04:32.204Z,102664.94
2023-01-09T13:07:11.430Z,102661.03
2023-01-09T13:09:43.825Z,102650.34
2023-01-09T13:12:13.561Z,102655.56
2023-01-09T13:14:56.047Z,102657.16
2023-01-09T13:17:26.874Z,102659.25
2023-01-09T13:19:54.610Z,102650.53
2023-01-09T13:22:24.517Z,102641.41
2023-01-09T13:25:07.799Z,102653.22
2023-01-09T13:27:39.544Z,102660.28
2023-01-09T13:30:17.490Z,102658.25
2023-01-09T13:32:45.255Z,102666.50
2023-01-09T13:35:14.431Z,102673.63
2023-01-09T13:37:42.883Z,102678.69
2023-01-09T13:40:19.554Z,102687.66
2023-01-09T13:43:01.648Z,102676.72
2023-01-09T13:45:31.285Z,102682.06
2023-01-09T13:48:20.111Z,102685.19
2023-01-09T13:50:48.375Z,102686.97
2023-01-09T13:53:18.850Z,102692.16
2023-01-09T13:55:59.032Z,102685.41
2023-01-09T13:58:37.707Z,102686.59
2023-01-09T14:01:27.557Z,102697.44
2023-01-09T14:04:24.009Z,102692.22
2023-01-09T14:07:19.653Z,102696.66
2023-01-09T14:09:50.071Z,102702.91
2023-01-09T14:12:17.929Z,102705.72
2023-01-09T14:14:48.362Z,102699.94
2023-01-09T14:17:18.053Z,102695.66
2023-01-09T14:19:45.737Z,102700.28
2023-01-09T14:22:27.593Z,102709.19
2023-01-09T14:24:56.787Z,102707.63
2023-01-09T14:27:55.455Z,102706.13
2023-01-09T14:30:35.124Z,102709.09
2023-01-09T14:33:39.975Z,102695.06
2023-01-09T14:36:21.747Z,102692.53
2023-01-09T14:38:53.006Z,102692.84
2023-01-09T14:41:42.973Z,102689.53
2023-01-09T14:44:30.185Z,102687.91
2023-01-09T14:47:15.937Z,102691.31
2023-01-09T14:50:07.503Z,102683.53
2023-01-09T14:52:46.259Z,102687.16
2023-01-09T14:55:22.966Z,102676.59
2023-01-09T14:57:54.909Z,102684.53
2023-01-09T15:00:23.248Z,102671.56
2023-01-09T15:02:51.754Z,102685.78
2023-01-09T15:05:23.984Z,102692.09
2023-01-09T15:08:00.765Z,102688.75
2023-01-09T15:10:29.834Z,102686.16
2023-01-09T15:12:58.692Z,102693.22
2023-01-09T15:15:26.460Z,102693.06
2023-01-09T15:17:59.294Z,102705.44
2023-01-09T15:20:31.226Z,102701.47
2023-01-09T15:23:00.962Z,102709.41
2023-01-09T15:25:39.912Z,102711.72
2023-01-09T15:28:27.364Z,102717.25
2023-01-09T15:31:16.589Z,102717.16
2023-01-09T15:33:45.449Z,102725.38
2023-01-09T15:36:18.604Z,102717.47
2023-01-09T15:38:46.536Z,102718.88
2023-01-09T15:41:38.004Z,102723.09
2023-01-09T15:44:06.702Z,102725.47
2023-01-09T15:46:34.328Z,102731.47
2023-01-09T15:49:02.397Z,102726.38
2023-01-09T15:51:30.284Z,102728.88
2023-01-09T15:54:00.841Z,102722.66
2023-01-09T15:56:33.442Z,102734.19
2023-01-09T15:59:01.237Z,102722.75
2023-01-09T16:01:38.765Z,102730.88
2023-01-09T16:04:14.349Z,102738.81
2023-01-09T16:06:47.645Z,102734.41
2023-01-09T16:09:21.201Z,102744.25
2023-01-09T16:11:52.893Z,102746.09
2023-01-09T16:14:21.205Z,102747.28
2023-01-09T16:16:49.761Z,102735.88
2023-01-09T16:19:45.331Z,102732.88
2023-01-09T16:22:32.421Z,102739.41
2023-01-09T16:25:01.549Z,102740.38
2023-01-09T16:27:30.964Z,102743.03
2023-01-09T16:30:08.469Z,102747.81
2023-01-09T16:32:46.736Z,102751.50
2023-01-09T16:35:16.034Z,102747.28
2023-01-09T16:37:43.662Z,102754.53
2023-01-09T16:40:14.130Z,102755.47
2023-01-09T16:43:00.753Z,102750.97
2023-01-09T16:45:41.365Z,102749.56
2023-01-09T16:48:21.121Z,102748.88
2023-01-09T16:50:49.496Z,102755.91
2023-01-09T16:53:25.914Z,102756.88
2023-01-09T16:55:53.764Z,102769.59
2023-01-09T16:58:32.388Z,102773.97
2023-01-09T17:01:00.082Z,102777.81
2023-01-09T17:03:27.804Z,102781.38
2023-01-09T17:05:56.352Z,102780.69
2023-01-09T17:08:32.172Z,102779.94
2023-01-09T17:10:59.987Z,102789.81
2023-01-09T17:13:27.740Z,102787.03
2023-01-09T17:15:56.368Z,102784.44
2023-01-09T17:18:25.450Z,102783.72
2023-01-09T17:20:55.154Z,102780.28
2023-01-09T17:23:23.291Z,102775.09
2023-01-09T17:26:10.068Z,102774.38
2023-01-09T17:28:37.884Z,102767.44
2023-01-09T17:31:07.000Z,102768.22
2023-01-09T17:33:34.661Z,102763.94
2023-01-09T17:36:02.948Z,102773.03
2023-01-09T17:38:30.689Z,102769.44
2023-01-09T17:40:58.314Z,102770.44
2023-01-09T17:43:25.892Z,102766.38
2023-01-09T17:45:53.597Z,102762.16
2023-01-09T17:48:22.051Z,102760.72
2023-01-09T17:50:49.978Z,102745.69
2023-01-09T17:53:20.035Z,102753.69
2023-01-09T17:55:47.740Z,102750.53
2023-01-09T17:58:25.529Z,102747.09
2023-01-09T18:00:53.199Z,102740.91
2023-01-09T18:03:23.205Z,102747.31
2023-01-09T18:05:50.957Z,102738.56
2023-01-09T18:08:18.880Z,102744.84
2023-01-09T18:10:48.778Z,102752.66
2023-01-09T18:13:16.987Z,102754.56
2023-01-09T18:15:45.336Z,102748.56
2023-01-09T18:18:13.534Z,102743.97
2023-01-09T18:20:41.307Z,102744.13
2023-01-09T18:23:09.856Z,102748.59
2023-01-09T18:25:41.665Z,102747.94
2023-01-09T18:28:11.095Z,102747.97
2023-01-09T18:30:38.796Z,102751.50
2023-01-09T18:33:06.565Z,102751.59
2023-01-09T18:35:34.419Z,102748.91
2023-01-09T18:38:02.112Z,102739.44
2023-01-09T18:40:30.036Z,102747.34
2023-01-09T18:42:57.764Z,102744.69
2023-01-09T18:45:25.932Z,102750.19
2023-01-09T18:47:53.652Z,102756.38
2023-01-09T18:50:21.673Z,102751.19
2023-01-09T18:52:49.320Z,102743.16
2023-01-09T18:55:16.912Z,102735.22
2023-01-09T18:57:44.792Z,102737.81
2023-01-09T19:00:13.039Z,102733.44
2023-01-09T19:02:40.659Z,102726.56
2023-01-09T19:05:08.822Z,102730.94
2023-01-09T19:07:36.592Z,102738.78
2023-01-09T19:10:04.559Z,102728.13
2023-01-09T19:12:32.322Z,102731.03
2023-01-09T19:14:59.990Z,102736.97
2023-01-09T19:17:27.703Z,102730.88
2023-01-09T19:19:55.560Z,102718.56
2023-01-09T19:22:23.683Z,102713.34
2023-01-09T19:24:52.384Z,102704.56
2023-01-09T19:27:20.503Z,102706.25
2023-01-09T19:29:48.153Z,102698.31
2023-01-09T19:32:15.945Z,102695.88
2023-01-09T19:34:46.629Z,102695.78
2023-01-09T19:37:14.442Z,102698.50
2023-01-09T19:39:42.414Z,102705.50
2023-01-09T19:42:10.075Z,102700.19
2023-01-09T19:44:37.993Z,102697.66
2023-01-09T19:47:06.036Z,102692.38
2023-01-09T19:49:33.796Z,102689.66
2023-01-09T19:52:01.579Z,102694.16
2023-01-09T19:54:30.438Z,102699.38
2023-01-09T19:56:58.043Z,102693.28
2023-01-09T19:59:25.734Z,102699.44
2023-01-09T20:01:53.999Z,102695.88
2023-01-09T20:04:21.652Z,102704.75
2023-01-09T20:06:50.297Z,102707.50
2023-01-09T20:09:22.641Z,102699.50
2023-01-09T20:11:50.915Z,102703.88
2023-01-09T20:14:19.408Z,102711.88
2023-01-09T20:16:50.189Z,102723.41
2023-01-09T20:19:17.857Z,102723.44
2023-01-09T20:21:45.566Z,102715.59
2023-01-09T20:24:14.770Z,102719.13
2023-01-09T20:26:42.544Z,102722.59
2023-01-09T20:29:10.200Z,102733.94
2023-01-09T20:31:37.963Z,102741.06
2023-01-09T20:34:05.565Z,102744.63
2023-01-09T20:36:35.060Z,102747.31
2023-01-09T20:39:04.241Z,102739.47
2023-01-09T20:41:31.983Z,102743.78
2023-01-09T20:44:19.062Z,102737.66
2023-01-09T20:46:49.707Z,102735.16
2023-01-09T20:49:21.186Z,102742.19
2023-01-09T20:51:51.139Z,102742.16
2023-01-09T20:54:21.269Z,102734.44
2023-01-09T20:56:49.022Z,102733.50
2023-01-09T20:59:18.219Z,102735.19
2023-01-09T21:01:46.248Z,102740.50
2023-01-09T21:04:13.989Z,102741.34
2023-01-09T21:06:42.839Z,102747.56
2023-01-09T21:09:10.652Z,102750.19
2023-01-09T21:11:39.923Z,102752.06
2023-01-09T21:14:07.561Z,102751.06
2023-01-09T21:16:36.365Z,102743.22
2023-01-09T21:19:04.263Z,102752.06
2023-01-09T21:21:32.019Z,102755.53
2023-01-09T21:24:00.746Z,102756.44
2023-01-09T21:26:30.639Z,102765.16
2023-01-09T21:28:59.223Z,102759.19
2023-01-09T21:31:34.653Z,102760.94
2023-01-09T21:34:04.941Z,102754.00
2023-01-09T21:36:32.725Z,102757.56
2023-01-09T21:39:00.484Z,102748.78
2023-01-09T21:41:46.750Z,102752.38
2023-01-09T21:44:32.805Z,102743.63
2023-01-09T21:47:01.028Z,102747.16
2023-01-09T21:49:31.414Z,102740.06
2023-01-09T21:51:59.146Z,102736.56
2023-01-09T21:54:26.885Z,102731.31
2023-01-09T21:56:54.852Z,102733.06
2023-01-09T21:59:23.097Z,102733.16
2023-01-09T22:01:50.882Z,102740.25
2023-01-09T22:04:19.887Z,102741.94
2023-01-09T22:06:50.253Z,102745.50
2023-01-09T22:09:18.094Z,102741.94
2023-01-09T22:11:45.916Z,102734.16
2023-01-09T22:14:14.711Z,102734.06
2023-01-09T22:16:45.014Z,102732.50
2023-01-09T22:19:13.397Z,102732.41
2023-01-09T22:21:41.083Z,102734.25
2023-01-09T22:24:09.745Z,102728.88
2023-01-09T22:26:37.383Z,102722.75
2023-01-09T22:29:05.080Z,102719.16
2023-01-09T22:31:33.155Z,102721.03
2023-01-09T22:34:02.523Z,102709.50
2023-01-09T22:36:31.241Z,102713.19
2023-01-09T22:38:59.515Z,102703.47
2023-01-09T22:41:27.594Z,102703.41
2023-01-09T22:43:55.325Z,102703.47
2023-01-09T22:46:23.055Z,102702.66
2023-01-09T22:48:51.068Z,102703.50
2023-01-09T22:51:19.742Z,102716.72
2023-01-09T22:53:47.497Z,102709.63
2023-01-09T22:56:17.471Z,102703.47
2023-01-09T22:58:49.519Z,102706.13
2023-01-09T23:01:19.966Z,102715.00
2023-01-09T23:03:47.617Z,102713.19
2023-01-09T23:06:17.096Z,102716.63
2023-01-09T23:08:46.244Z,102717.63
2023-01-09T23:11:16.352Z,102706.16
2023-01-09T23:13:44.110Z,102709.66
2023-01-09T23:16:11.781Z,102712.44
2023-01-09T23:18:39.472Z,102707.09
2023-01-09T23:21:07.036Z,102715.03
2023-01-09T23:23:35.439Z,102708.75
2023-01-09T23:26:03.381Z,102716.69
2023-01-09T23:28:31.678Z,102723.84
2023-01-09T23:30:59.771Z,102705.44
2023-01-09T23:33:27.355Z,102722.06
2023-01-09T23:35:55.101Z,102719.38
2023-01-09T23:38:22.834Z,102720.25
2023-01-09T23:40:56.027Z,102729.91
2023-01-09T23:43:23.568Z,102727.31
2023-01-09T23:45:51.765Z,102723.81
2023-01-09T23:48:19.507Z,102724.66
2023-01-09T23:50:51.529Z,102738.69
2023-01-09T23:53:19.867Z,102732.56
2023-01-09T23:55:47.939Z,102729.03
2023-01-09T23:58:15.639Z,102737.91
